Flight Track Log - Related Links

Times and Time Zones

All times are in EST time to prevent confusion due to time zone crossing. See the N789EX flight status page for this flight to view local times or setup timezone preferences in your user account.

Time Position Orientation Groundspeed Altitude Reporting Facility
EST Latitude Longitude Course Direction KTS MPH feet Rate Location/Type
Sat 02:20:16 PM 34.6667 -117.3864 358° North 195 224 6,400  Level Los Angeles Center
Sat 02:21:18 PM 34.7350 -117.3900 358° North 228 262 9,400 2,780 Climbing Los Angeles Center
Sat 02:22:19 PM 34.8097 -117.3919 359° North 262 302 12,100 3,097 Climbing Los Angeles Center
Sat 02:23:22 PM 34.9197 -117.3908 360° North 330 380 15,800 3,168 Climbing Los Angeles Center
Sat 02:24:24 PM 34.9856 -117.4681 316° Northwest 337 388 18,700 2,516 Climbing Los Angeles Center
Sat 02:25:26 PM 35.0411 -117.5586 307° West 343 395 21,000 2,710 Climbing Los Angeles Center
Sat 02:26:28 PM 35.1100 -117.6703 307° West 355 409 24,300 2,613 Climbing Los Angeles Center
Sat 02:27:30 PM 35.1722 -117.7669 308° West 361 415 26,400 1,935 Climbing Los Angeles Center
Sat 02:28:32 PM 35.2372 -117.8669 309° West 370 426 28,300 1,694 Climbing Los Angeles Center
Sat 02:29:34 PM 35.3139 -117.9600 315° West 394 453 29,900 1,500 Climbing Los Angeles Center
Sat 02:30:36 PM 35.4178 -117.9992 343° North 396 456 31,400 1,536 Climbing Los Angeles Center
Sat 02:31:39 PM 35.5261 -118.0408 343° North 403 464 33,100 1,728 Climbing Los Angeles Center
Sat 02:32:41 PM 35.6539 -118.0922 342° North 403 464 35,000 1,597 Climbing Los Angeles Center
Sat 02:33:43 PM 35.7569 -118.1344 342° North 395 455 36,400 1,161 Climbing Los Angeles Center
Sat 02:34:45 PM 35.8617 -118.1753 342° North 394 453 37,400 774 Climbing Los Angeles Center
Sat 02:35:47 PM 35.9675 -118.2150 343° North 396 456 38,000 290 Climbing Los Angeles Center
Sat 02:36:49 PM 36.0742 -118.2550 343° North 401 461 38,000  Level Los Angeles Center
Sat 02:37:51 PM 36.1822 -118.2961 343° North 406 467 38,000  Level Los Angeles Center
Sat 02:38:54 PM 36.3119 -118.3475 342° North 408 470 38,000  Level Los Angeles Center
Sat 02:39:40 PM 36.3964 -118.3794 343° North 411 473 38,000  Level Oakland Center
Sat 02:40:42 PM 36.5056 -118.4231 342° North 411 473 38,000  Level Oakland Center
Sat 02:41:43 PM 36.6128 -118.4656 342° North 412 474 38,000  Level Oakland Center
Sat 02:42:45 PM 36.7225 -118.5089 342° North 411 473 38,000 -49 Level Oakland Center
Sat 02:43:46 PM 36.8250 -118.5464 344° North 397 457 37,900 -49 Descending Oakland Center
Sat 02:44:48 PM 36.9319 -118.5883 343° North 399 459 37,900 49 Level Oakland Center
Sat 02:45:49 PM 37.0414 -118.6311 343° North 408 470 38,000  Climbing Oakland Center
Sat 02:46:50 PM 37.1736 -118.6836 342° North 415 478 37,900 -49 Descending Oakland Center
Sat 02:47:52 PM 37.2833 -118.7281 342° North 414 476 37,900 49 Level Oakland Center
Sat 02:48:53 PM 37.3936 -118.7714 343° North 409 471 38,000  Climbing Oakland Center
Sat 02:49:55 PM 37.5011 -118.8150 342° North 412 474 37,900  Descending Oakland Center
Sat 02:50:56 PM 37.6033 -118.8564 342° North 414 476 38,000 49 Climbing Oakland Center
Sat 02:51:57 PM 37.7325 -118.9075 343° North 408 470 38,000  Level Oakland Center
Sat 02:52:59 PM 37.8425 -118.9514 343° North 413 475 38,000  Level Oakland Center
Sat 02:54:00 PM 37.9414 -118.9917 342° North 411 473 38,000  Level Oakland Center
Sat 02:55:02 PM 38.0500 -119.0358 342° North 408 470 38,000  Level Oakland Center
Sat 02:56:03 PM 38.1703 -119.0844 342° North 411 473 38,000  Level Oakland Center
Sat 02:57:05 PM 38.2783 -119.1294 342° North 409 471 38,000  Level Oakland Center
Sat 02:58:06 PM 38.3858 -119.1728 342° North 407 468 38,000  Level Oakland Center
Sat 02:59:08 PM 38.4928 -119.2169 342° North 403 464 38,000  Level Oakland Center
Sat 03:00:09 PM 38.6000 -119.2622 342° North 404 465 38,000  Level Oakland Center
Sat 03:01:10 PM 38.7069 -119.3069 342° North 404 465 38,000  Level Oakland Center
Sat 03:02:12 PM 38.8356 -119.3608 342° North 404 465 38,000  Level Oakland Center
Sat 03:03:13 PM 38.9433 -119.4053 342° North 404 465 38,000  Level Oakland Center
Sat 03:04:15 PM 39.0500 -119.4506 342° North 403 464 38,000  Level Oakland Center
Sat 03:05:16 PM 39.1575 -119.4956 342° North 403 464 38,000  Level Oakland Center
Sat 03:06:18 PM 39.2650 -119.5422 341° North 404 465 38,000  Level Oakland Center
Sat 03:07:19 PM 39.3706 -119.5867 342° North 399 459 38,000  Level Oakland Center
Sat 03:08:20 PM 39.4781 -119.6317 342° North 402 463 38,000  Level Oakland Center
Sat 03:09:22 PM 39.5853 -119.6781 342° North 404 465 38,000  Level Oakland Center
Sat 03:10:23 PM 39.6939 -119.7244 342° North 406 467 38,000  Level Oakland Center
Sat 03:11:25 PM 39.8000 -119.7697 342° North 403 464 38,000  Level Oakland Center
Sat 03:12:26 PM 39.9075 -119.8158 342° North 404 465 38,000  Level Oakland Center
Sat 03:13:27 PM 40.0150 -119.8622 342° North 406 467 38,000  Level Oakland Center
Sat 03:14:29 PM 40.1450 -119.9175 342° North 406 467 38,000  Level Oakland Center
Sat 03:15:30 PM 40.2522 -119.9639 342° North 405 466 38,000  Level Oakland Center
Sat 03:16:32 PM 40.3589 -120.0125 341° North 406 467 38,000  Level Oakland Center
Sat 03:17:33 PM 40.4669 -120.0575 342° North 406 467 38,000  Level Oakland Center
Sat 03:18:34 PM 40.5806 -120.1081 341° North 407 468 38,000  Level Oakland Center
Sat 03:19:36 PM 40.6850 -120.1581 340° North 402 463 38,000  Level Oakland Center
Sat 03:20:37 PM 40.7906 -120.2056 341° North 401 461 38,000  Level Oakland Center
Sat 03:21:39 PM 40.9011 -120.2486 344° North 410 472 38,000  Level Oakland Center
Sat 03:22:41 PM 41.0064 -120.2978 341° North 403 464 38,000  Level Oakland Center
Sat 03:23:42 PM 41.1103 -120.3492 340° North 402 463 38,000  Level Oakland Center
Sat 03:24:18 PM 41.1775 -120.3750 344° North 406 467 38,000  Level Seattle Center
Sat 03:25:19 PM 41.2853 -120.4217 342° North 407 468 38,000  Level Seattle Center
Sat 03:26:20 PM 41.3917 -120.4689 342° North 403 464 38,000  Level Seattle Center
Sat 03:27:22 PM 41.5189 -120.5272 341° North 404 465 38,000  Level Seattle Center
Sat 03:28:23 PM 41.6250 -120.5750 341° North 404 465 38,000  Level Seattle Center
Sat 03:29:24 PM 41.7292 -120.6239 341° North 400 460 38,000  Level Seattle Center
Sat 03:30:24 PM 41.8339 -120.6736 341° North 401 461 38,000  Level Seattle Center
Sat 03:31:25 PM 41.9403 -120.7219 341° North 406 467 38,000 49 Level Seattle Center
Sat 03:32:26 PM 42.0492 -120.7708 342° North 413 475 38,100 836 Climbing Seattle Center
Sat 03:33:27 PM 42.1517 -120.8178 341° North 398 458 39,700 934 Climbing Seattle Center
Sat 03:34:28 PM 42.2525 -120.8644 341° North 388 447 40,000 148 Climbing Seattle Center
Sat 03:35:29 PM 42.3564 -120.9131 341° North 395 455 40,000  Level Seattle Center
Sat 03:36:30 PM 42.4603 -120.9622 341° North 397 457 40,000  Level Seattle Center
Sat 03:37:31 PM 42.5861 -121.0197 341° North 398 458 40,000  Level Seattle Center
Sat 03:38:33 PM 42.6922 -121.0708 341° North 404 465 40,000  Level Seattle Center
Sat 03:39:33 PM 42.7936 -121.1189 341° North 391 450 40,000  Level Seattle Center
Sat 03:40:34 PM 42.9003 -121.1694 341° North 403 464 40,000  Level Seattle Center
Sat 03:41:35 PM 43.0039 -121.2183 341° North 399 459 40,000  Level Seattle Center
Sat 03:42:37 PM 43.1075 -121.2678 341° North 397 457 40,000  Level Seattle Center
Sat 03:43:37 PM 43.2128 -121.3158 342° North 399 459 40,000  Level Seattle Center
Sat 03:44:38 PM 43.3169 -121.3675 340° North 399 459 40,000  Level Seattle Center
Sat 03:45:39 PM 43.4200 -121.4181 340° North 397 457 40,000  Level Seattle Center
Sat 03:46:40 PM 43.5247 -121.4692 341° North 398 458 40,000  Level Seattle Center
Sat 03:47:41 PM 43.6519 -121.5322 340° North 405 466 40,000  Level Seattle Center
Sat 03:48:42 PM 43.7567 -121.5856 340° North 402 463 40,000  Level Seattle Center
Sat 03:49:43 PM 43.8561 -121.6306 342° North 408 470 40,000  Level Seattle Center
Sat 03:50:44 PM 43.9619 -121.6839 340° North 407 468 40,000  Level Seattle Center
Sat 03:51:45 PM 44.0675 -121.7333 341° North 403 464 40,000  Level Seattle Center
Sat 03:52:46 PM 44.1725 -121.7867 340° North 402 463 40,000  Level Seattle Center
Sat 03:53:47 PM 44.2764 -121.8369 341° North 398 458 40,000  Level Seattle Center
Sat 03:54:48 PM 44.3833 -121.8914 340° North 390 449 40,000  Level Seattle Center
Sat 03:55:48 PM 44.4817 -121.9397 341° North 392 451 40,000  Level Seattle Center
Sat 03:56:49 PM 44.6053 -122.0006 341° North 394 453 40,000  Level Seattle Center
Sat 03:57:50 PM 44.6931 -122.0467 340° North 390 449 40,000  Level Seattle Center
Sat 03:58:51 PM 44.7972 -122.0992 340° North 394 453 40,000 -49 Level Seattle Center
Sat 03:59:52 PM 44.9061 -122.1567 339° North 392 451 39,900 -49 Descending Seattle Center
Sat 04:00:53 PM 45.0086 -122.2078 341° North 393 452 39,900  Level Seattle Center
Sat 04:01:54 PM 45.1111 -122.2606 340° North 394 453 39,900 49 Level Seattle Center
Sat 04:02:55 PM 45.2153 -122.3131 340° North 399 459 40,000 49 Climbing Seattle Center
Sat 04:03:56 PM 45.3161 -122.3650 340° North 392 451 40,000  Level Seattle Center
Sat 04:04:57 PM 45.4178 -122.4183 340° North 392 451 40,000  Level Seattle Center
Sat 04:05:57 PM 45.5189 -122.4708 340° North 390 449 40,000 -50 Level Seattle Center
Sat 04:06:58 PM 45.6425 -122.5344 340° North 394 453 39,900 -49 Descending Seattle Center
Sat 04:07:59 PM 45.7444 -122.5872 340° North 394 453 39,900 49 Level Seattle Center
Sat 04:09:00 PM 45.8528 -122.6164 349° North 400 460 40,000 49 Climbing Seattle Center
Sat 04:10:01 PM 45.9608 -122.6428 350° North 396 456 40,000 -787 Level Seattle Center
Sat 04:11:02 PM 46.0672 -122.6700 350° North 391 450 38,400 -2,262 Descending Seattle Center
Sat 04:12:03 PM 46.1736 -122.6958 350° North 391 450 35,400 -3,492 Descending Seattle Center
Sat 04:13:04 PM 46.2914 -122.7258 350° North 406 467 31,300 -3,689 Descending Seattle Center
Sat 04:14:05 PM 46.4053 -122.7572 349° North 415 478 27,900 -2,902 Descending Seattle Center
Sat 04:15:06 PM 46.5172 -122.7872 350° North 411 473 25,400 -1,785 Descending Seattle Center
Sat 04:16:06 PM 46.6242 -122.8161 349° North 395 455 24,300 -1,934 Descending Seattle Center
Sat 04:17:07 PM 46.7297 -122.8419 350° North 386 444 21,500 -3,000 Descending Seattle Center
Sat 04:17:32 PM 46.7844 -122.8550 351° North 379 436 20,000 -2,507 Descending Seattle Center
Sat 04:18:14 PM 46.8533 -122.8731 350° North 373 429 18,700 -1,423 Descending Seattle Center
Sat 04:19:09 PM 46.9383 -122.8933 351° North 350 403 17,700 -1,082 Descending Seattle Center
Sat 04:19:15 PM 46.9433 -122.8961 339° North 319 367 17,600 -1,475 Descending Seattle Center
Sat 04:20:10 PM 47.0161 -122.8475 24° Northeast 327 376 16,200 -1,522 Descending Seattle Center
Sat 04:20:22 PM 47.0303 -122.8269 45° Northeast 317 365 15,900 -1,315 Descending Seattle Center
Sat 04:21:23 PM 47.0967 -122.7461 40° Northeast 313 360 14,600 -1,036 Descending Seattle Center
Sat 04:22:12 PM 47.1469 -122.6778 43° Northeast 296 341 14,000 -655 Descending Seattle Center
Sat 04:22:18 PM 47.1531 -122.6703 40° Northeast 300 345 14,000  Level Seattle Center
Sat 04:23:19 PM 47.2150 -122.5908 41° Northeast 297 342 14,000 -569 Level Seattle Center
Sat 04:24:14 PM 47.2781 -122.5436 27° Northeast 278 320 12,900 -1,300 Descending Seattle Center
Sat 04:24:19 PM 47.2833 -122.5442 356° North 272 313 12,700 -1,700 Descending Seattle Center
Sat 04:25:14 PM 47.3478 -122.5447 360° North 242 278 11,200 -1,607 Descending Seattle Center
Sat 04:25:15 PM 47.3478 -122.5450 270° West 250 288 11,200 -2,129 Level Seattle Center
Sat 04:26:16 PM 47.4114 -122.5586 352° North 232 267 9,000 -2,281 Descending Seattle Center
Sat 04:27:16 PM 47.4722 -122.5725 351° North 223 257 6,600 -2,545 Descending Seattle Center
Sat 04:27:22 PM 47.4836 -122.5722 North 227 261 6,200 -1,869 Descending Seattle Center
Sat 04:28:17 PM 47.5419 -122.5706 North 231 266 4,700 -1,304 Descending Seattle Center
Sat 04:29:17 PM 47.6086 -122.5758 357° North 237 273 3,700 -984 Descending Seattle Center
Sat 04:29:18 PM 47.6075 -122.5742 135° Southeast 235 270 3,700 -492 Level Seattle Center
Sat 04:30:18 PM 47.6667 -122.5769 358° North 200 230 3,200 -492 Descending Seattle Center
Sat 04:30:19 PM 47.6653 -122.5781 208° Southwest 207 238 3,200 -982 Level Seattle Center
Sat 04:31:13 PM 47.7069 -122.5517 23° Northeast 190 219 2,300 -885 Descending Seattle Center
Sat 04:31:20 PM 47.7092 -122.5483 45° Northeast 191 220 2,300 -90 Level Seattle Center
Sat 04:32:20 PM 47.7139 -122.4819 84° East 183 211 2,200 -98 Descending Seattle Center
Sat 04:32:21 PM 47.7139 -122.4808 90° East 187 215 2,200  Level Seattle Center
Sat 04:34:21 PM 47.6361 -122.3933 143° Southeast 172 198 2,200  Level Seattle Center
Sat 04:34:22 PM 47.6328 -122.3903 148° Southeast 175 201 2,200 -787 Level Seattle Center
Sat 04:35:22 PM 47.5964 -122.3592 150° Southeast 151 174 1,400 -787 Descending Seattle Center
Sat 04:35:23 PM 47.5964 -122.3589 90° East 154 177 1,400 -885 Level Seattle Center
Sat 04:36:23 PM 47.5603 -122.3300 152° Southeast 146 168 500 -885 Descending Seattle Center
Sat 04:36:24 PM 47.5606 -122.3283 76° East 150 173 500 -387 Level Seattle Center
Sat 04:37:25 PM 47.5233 -122.2978 151° Southeast 147 169 100 -393 Descending Seattle Center

Login

Don't have an account? Register now (free) for customized features, flight alerts, and more!